Time;durP1;ratioP1;P1;durP2;ratioP2;P2;SDS_P1;SDS_P2;PMS_P1;PMS_P2;Temp;Humidity;BMP_temperature;BMP_pressure;BME280_temperature;BME280_humidity;BME280_pressure;Samples;Min_cycle;Max_cycle;Signal;HPM_P1;HPM_P2
2021/07/12 00:00:28;;;;;;;4.47;4.15;;;14.90;99.90;;;15.74;90.44;97806.00;5202434;28;20316;-67
2021/07/12 00:03:02;;;;;;;4.63;4.10;;;14.90;99.90;;;15.70;90.72;97807.56;5184921;28;20202;-68
2021/07/12 00:05:36;;;;;;;6.63;4.28;;;14.90;99.90;;;15.68;90.36;97796.38;5177534;28;20590;-66
2021/07/12 00:08:10;;;;;;;4.28;3.97;;;14.90;99.90;;;15.64;90.47;97799.59;5182424;28;20601;-66
2021/07/12 00:10:43;;;;;;;3.92;3.72;;;14.80;99.90;;;15.58;90.55;97804.53;5180019;28;20218;-68
2021/07/12 00:13:17;;;;;;;4.68;4.28;;;14.80;99.90;;;15.62;90.37;97790.94;5183949;28;20252;-65
2021/07/12 00:15:50;;;;;;;4.25;3.85;;;14.80;99.90;;;15.67;90.11;97791.97;5183736;28;20218;-66
2021/07/12 00:18:24;;;;;;;4.20;3.90;;;14.80;99.90;;;15.60;90.35;97792.59;5186791;28;20681;-66
2021/07/12 00:20:57;;;;;;;4.35;3.95;;;14.80;99.90;;;15.53;90.33;97786.31;5180641;28;20577;-66
2021/07/12 00:23:32;;;;;;;4.00;3.70;;;14.70;99.90;;;15.57;89.69;97784.75;5177012;28;20213;-67
2021/07/12 00:26:05;;;;;;;4.47;4.07;;;14.60;99.90;;;15.54;88.96;97771.75;5192089;28;20202;-69
2021/07/12 00:28:38;;;;;;;3.80;3.60;;;14.60;99.90;;;15.44;88.46;97772.25;5187223;28;20218;-66
2021/07/12 00:31:12;;;;;;;4.10;3.80;;;14.50;99.90;;;15.28;88.86;97776.84;5172071;28;20590;-66
2021/07/12 00:33:45;;;;;;;4.10;3.80;;;14.40;99.90;;;15.15;89.67;97771.16;5200349;28;20308;-68
2021/07/12 00:36:18;;;;;;;4.05;3.80;;;14.30;99.90;;;15.10;89.63;97773.56;5188385;28;20202;-67
2021/07/12 00:38:52;;;;;;;4.43;4.03;;;14.30;99.90;;;15.05;90.37;97764.78;5173215;28;20203;-68
2021/07/12 00:41:25;;;;;;;4.22;3.92;;;14.30;99.90;;;15.06;90.79;97761.41;5184964;28;20216;-66
2021/07/12 00:43:59;;;;;;;5.03;4.35;;;14.30;99.90;;;15.09;91.24;97759.81;5184919;28;20202;-65
2021/07/12 00:46:32;;;;;;;4.55;4.15;;;14.40;99.90;;;15.14;92.02;97752.28;5185868;28;20203;-66
2021/07/12 00:49:05;;;;;;;4.70;4.20;;;14.40;99.90;;;15.17;90.69;97748.94;5182001;28;20228;-65
2021/07/12 00:51:39;;;;;;;4.45;4.15;;;14.40;99.90;;;15.11;91.81;97749.59;5179476;28;20203;-66
2021/07/12 00:54:13;;;;;;;4.60;4.20;;;14.30;99.90;;;15.07;91.09;97742.56;5183056;28;20222;-65
2021/07/12 00:56:46;;;;;;;4.75;4.32;;;14.30;99.90;;;14.98;91.07;97735.34;5186148;28;20645;-68
2021/07/12 00:59:19;;;;;;;4.53;4.13;;;14.30;99.90;;;14.99;91.05;97733.66;5189921;28;20214;-66
2021/07/12 01:01:54;;;;;;;4.93;4.53;;;14.20;99.90;;;15.02;91.62;97729.53;5177534;28;20199;-66
2021/07/12 01:04:27;;;;;;;5.13;4.63;;;14.30;99.90;;;15.02;92.06;97728.63;5187419;28;20198;-65
2021/07/12 01:07:00;;;;;;;4.80;4.40;;;14.30;99.90;;;15.01;93.37;97721.72;5184816;28;20588;-65
2021/07/12 01:09:34;;;;;;;4.47;4.18;;;14.30;99.90;;;15.09;92.46;97720.31;5185269;28;20226;-65
2021/07/12 01:12:21;;;;;;;4.88;4.47;;;14.30;99.90;;;15.06;91.68;97718.50;5172868;28;20215;-70
2021/07/12 01:15:01;;;;;;;4.63;4.30;;;14.30;99.90;;;15.02;91.87;97708.03;5176479;28;20199;-66
2021/07/12 01:17:50;;;;;;;4.25;3.90;;;14.20;99.90;;;14.97;91.72;97699.28;5181464;28;20194;-67
2021/07/12 01:21:03;;;;;;;4.30;4.00;;;14.20;99.90;;;14.97;91.63;97702.72;5182747;28;20238;-66
2021/07/12 01:24:44;;;;;;;4.40;4.05;;;14.20;99.90;;;14.95;91.79;97698.34;5182666;28;20194;-66
2021/07/12 01:28:08;;;;;;;4.60;4.30;;;14.20;99.90;;;14.93;91.74;97705.13;5140483;28;20210;-66
2021/07/12 01:31:33;;;;;;;5.00;4.70;;;14.20;99.90;;;14.88;92.02;97712.69;5184247;28;20255;-69
2021/07/12 01:34:14;;;;;;;5.07;4.60;;;14.20;99.90;;;14.90;92.12;97717.88;5181991;28;20763;-67
2021/07/12 01:36:53;;;;;;;4.78;4.47;;;14.20;99.90;;;14.87;92.13;97709.22;5179554;28;20608;-65
2021/07/12 01:39:32;;;;;;;5.10;4.70;;;14.10;99.90;;;14.92;92.64;97699.09;5178653;28;20241;-68
2021/07/12 01:42:09;;;;;;;5.63;4.78;;;14.20;99.90;;;14.99;92.99;97697.63;5178182;28;20665;-67
2021/07/12 01:44:48;;;;;;;4.63;4.28;;;14.20;99.90;;;14.95;91.92;97701.78;5183596;28;20201;-67
2021/07/12 01:47:34;;;;;;;4.90;4.50;;;14.10;99.90;;;14.87;92.27;97693.78;5190780;28;20217;-66
2021/07/12 01:50:18;;;;;;;4.70;4.03;;;14.10;99.90;;;14.84;92.14;97693.66;5176966;28;20305;-66
2021/07/12 01:53:07;;;;;;;5.25;4.75;;;14.10;99.90;;;14.78;92.30;97683.13;5175736;28;20210;-67
2021/07/12 01:55:50;;;;;;;4.50;4.10;;;14.00;99.90;;;14.76;92.06;97689.91;5181149;28;20206;-65
2021/07/12 01:58:32;;;;;;;5.00;4.70;;;14.00;99.90;;;14.80;92.42;97691.81;5181270;28;20688;-65
2021/07/12 02:01:06;;;;;;;5.30;4.80;;;14.00;99.90;;;14.79;91.83;97690.06;5185141;28;20226;-66
2021/07/12 02:03:39;;;;;;;5.22;4.78;;;14.00;99.90;;;14.80;91.40;97680.63;5167009;28;20195;-66
2021/07/12 02:06:15;;;;;;;5.25;4.85;;;13.90;99.90;;;14.74;92.57;97680.41;5173838;28;20205;-71
2021/07/12 02:08:51;;;;;;;5.28;4.85;;;14.00;99.90;;;14.72;91.55;97674.31;5172801;28;20195;-66
2021/07/12 02:11:24;;;;;;;5.22;4.82;;;13.90;99.90;;;14.68;92.08;97681.06;5181369;28;20666;-66
2021/07/12 02:13:58;;;;;;;5.18;4.70;;;13.90;99.90;;;14.71;91.97;97680.25;5172294;28;20223;-67
2021/07/12 02:16:32;;;;;;;5.15;4.75;;;13.90;99.90;;;14.76;92.90;97674.47;5175680;28;20214;-66
2021/07/12 02:19:06;;;;;;;4.97;4.57;;;14.00;99.90;;;14.70;91.69;97676.81;5186995;28;20232;-66
2021/07/12 02:21:43;;;;;;;4.72;4.40;;;13.90;99.90;;;14.68;91.68;97690.44;5184423;28;20201;-66
2021/07/12 02:24:18;;;;;;;5.97;4.90;;;13.90;99.90;;;14.60;91.59;97687.59;5177651;28;20210;-65
2021/07/12 02:26:53;;;;;;;3.95;3.63;;;13.80;99.90;;;14.56;91.86;97688.28;5180813;28;20206;-65
2021/07/12 02:29:27;;;;;;;4.88;4.55;;;13.70;99.90;;;14.52;91.30;97684.72;5188417;28;20221;-65
2021/07/12 02:32:02;;;;;;;4.70;4.40;;;13.70;99.90;;;14.52;92.12;97684.72;5186581;28;20198;-65
2021/07/12 02:34:36;;;;;;;5.07;4.57;;;13.80;99.90;;;14.52;92.27;97689.00;5183258;28;20639;-66
2021/07/12 02:37:11;;;;;;;4.53;4.13;;;13.80;99.90;;;14.51;91.73;97682.06;5193370;28;20294;-65
2021/07/12 02:39:46;;;;;;;5.10;4.78;;;13.70;99.90;;;14.50;92.22;97686.31;5183236;28;20230;-66
2021/07/12 02:42:20;;;;;;;5.20;4.80;;;13.70;99.90;;;14.50;92.55;97685.44;5183546;28;20692;-65
2021/07/12 02:44:54;;;;;;;5.07;4.65;;;13.70;99.90;;;14.43;91.92;97685.22;5184431;28;20202;-65
2021/07/12 02:47:27;;;;;;;5.20;4.65;;;13.70;99.90;;;14.38;92.23;97683.28;5184051;28;20202;-67
2021/07/12 02:50:01;;;;;;;4.85;4.35;;;13.60;99.90;;;14.40;91.40;97677.38;5169415;28;20225;-67
2021/07/12 02:52:41;;;;;;;4.97;4.47;;;13.60;99.90;;;14.38;91.84;97681.56;5183614;28;20307;-66
2021/07/12 02:55:14;;;;;;;4.50;4.10;;;13.60;99.90;;;14.37;91.31;97674.69;5169585;28;20218;-65
2021/07/12 02:57:47;;;;;;;4.55;4.15;;;13.60;99.90;;;14.34;92.29;97690.00;5173977;28;20659;-66
2021/07/12 03:00:20;;;;;;;4.95;4.38;;;13.50;99.90;;;14.37;92.93;97695.25;5183914;28;20227;-66
2021/07/12 03:02:54;;;;;;;4.57;4.28;;;13.60;99.90;;;14.39;93.34;97696.22;5175673;28;20195;-66
2021/07/12 03:05:27;;;;;;;7.05;4.10;;;13.70;99.90;;;14.36;92.92;97683.19;5177544;28;20206;-66
2021/07/12 03:08:08;;;;;;;4.60;4.20;;;13.60;99.90;;;14.42;92.29;97696.31;5174495;28;20202;-67
2021/07/12 03:10:46;;;;;;;4.22;3.92;;;13.60;99.90;;;14.43;92.46;97698.06;5181037;28;20245;-66
2021/07/12 03:13:25;;;;;;;4.50;4.13;;;13.60;99.90;;;14.45;91.77;97689.53;5185426;28;20629;-66
2021/07/12 03:15:59;;;;;;;4.32;3.88;;;13.60;99.90;;;14.42;91.67;97698.00;5182313;28;20202;-67
2021/07/12 03:18:40;;;;;;;4.53;4.13;;;13.60;99.90;;;14.36;91.63;97683.19;5184128;28;20237;-66
2021/07/12 03:21:15;;;;;;;4.45;4.15;;;13.50;99.90;;;14.34;92.06;97679.72;5182769;28;20230;-67
2021/07/12 03:23:50;;;;;;;4.18;3.78;;;13.50;99.90;;;14.35;92.12;97678.88;5182544;28;20571;-67
2021/07/12 03:26:25;;;;;;;4.10;3.63;;;13.50;99.90;;;14.34;91.25;97679.72;5172562;28;20198;-67
2021/07/12 03:29:00;;;;;;;4.32;4.03;;;13.50;99.90;;;14.36;91.35;97688.34;5183890;28;20205;-67
2021/07/12 03:31:34;;;;;;;4.47;4.07;;;13.60;99.90;;;14.37;92.23;97679.84;5176526;28;20290;-67
2021/07/12 03:34:09;;;;;;;4.47;4.07;;;13.60;99.90;;;14.35;91.28;97676.31;5184492;28;20218;-66
2021/07/12 03:36:45;;;;;;;4.55;4.15;;;13.60;99.90;;;14.36;91.26;97678.06;5178106;28;20202;-66
2021/07/12 03:39:22;;;;;;;4.18;3.85;;;13.60;99.90;;;14.33;91.84;97671.94;5180752;28;20222;-66
2021/07/12 03:41:59;;;;;;;4.68;4.30;;;13.50;99.90;;;14.29;91.51;97665.78;5185127;28;20208;-67
2021/07/12 03:44:32;;;;;;;3.80;3.47;;;13.50;99.90;;;14.33;91.49;97665.09;5187037;28;20305;-66
2021/07/12 03:47:05;;;;;;;4.57;4.03;;;13.50;99.90;;;14.32;91.06;97658.19;5185720;28;20230;-66
2021/07/12 03:49:38;;;;;;;4.35;3.95;;;13.50;99.90;;;14.29;90.61;97655.50;5188441;28;20229;-66
2021/07/12 03:52:11;;;;;;;5.35;4.22;;;13.50;99.90;;;14.31;91.69;97653.00;5185057;28;20650;-66
2021/07/12 03:54:46;;;;;;;4.13;3.83;;;13.50;99.90;;;14.32;91.30;97653.06;5185088;28;20225;-66
2021/07/12 03:57:22;;;;;;;4.38;3.90;;;13.50;99.90;;;14.35;91.80;97645.47;5191200;28;20795;-66
2021/07/12 03:59:55;;;;;;;4.68;4.22;;;13.60;99.90;;;14.41;91.83;97645.69;5181983;28;20233;-67
2021/07/12 04:02:28;;;;;;;4.63;4.25;;;13.60;99.90;;;14.40;91.69;97649.09;5179755;28;20302;-68
2021/07/12 04:05:01;;;;;;;4.38;3.97;;;13.70;99.90;;;14.45;92.43;97656.09;5176751;28;20190;-66
2021/07/12 04:07:35;;;;;;;4.50;4.15;;;13.70;99.90;;;14.50;91.34;97654.59;5183314;28;20202;-66
2021/07/12 04:10:12;;;;;;;4.88;4.47;;;13.70;99.90;;;14.53;91.86;97654.72;5181257;28;20219;-67
2021/07/12 04:12:46;;;;;;;4.90;4.47;;;13.80;99.90;;;14.56;91.14;97647.13;5178106;28;20202;-66
2021/07/12 04:15:19;;;;;;;4.28;3.97;;;13.80;99.90;;;14.53;91.44;97634.16;5182260;28;20670;-67
2021/07/12 04:17:52;;;;;;;5.07;4.57;;;13.80;99.90;;;14.48;91.06;97640.78;5187889;28;20766;-67
2021/07/12 04:20:25;;;;;;;4.43;4.07;;;13.70;99.90;;;14.45;90.69;97640.66;5189791;28;20222;-66
2021/07/12 04:22:59;;;;;;;4.40;4.10;;;13.70;99.90;;;14.49;91.04;97652.84;5179548;28;20570;-66
2021/07/12 04:25:33;;;;;;;4.80;4.38;;;13.70;99.90;;;14.53;91.07;97649.59;5170984;28;20206;-66
2021/07/12 04:28:07;;;;;;;4.90;4.50;;;13.70;99.90;;;14.53;90.76;97652.16;5181580;28;20205;-67
2021/07/12 04:30:40;;;;;;;4.53;4.22;;;13.70;99.90;;;14.49;91.86;97652.84;5188028;28;20304;-67
2021/07/12 04:33:13;;;;;;;4.72;4.32;;;13.70;99.90;;;14.54;90.97;97648.78;5183826;28;20289;-69
2021/07/12 04:35:46;;;;;;;4.50;4.15;;;13.70;99.90;;;14.62;91.75;97652.50;5184201;28;20245;-67
2021/07/12 04:38:20;;;;;;;4.97;4.57;;;13.80;99.90;;;14.66;92.05;97631.22;5181626;28;20580;-67
2021/07/12 04:40:54;;;;;;;4.75;4.35;;;13.90;99.90;;;14.69;91.25;97627.91;5180579;28;20230;-66
2021/07/12 04:43:27;;;;;;;4.80;4.50;;;13.90;99.90;;;14.75;91.10;97625.56;5174578;28;20194;-66
2021/07/12 04:46:00;;;;;;;4.78;4.40;;;13.90;99.90;;;14.86;90.60;97624.25;5187528;28;20198;-67
2021/07/12 04:48:34;;;;;;;4.55;4.03;;;14.00;99.90;;;14.90;88.57;97620.09;5188826;28;20225;-66
2021/07/12 04:51:08;;;;;;;4.93;4.40;;;14.10;99.90;;;14.84;89.66;97610.44;5186836;28;20313;-66
2021/07/12 04:53:41;;;;;;;4.60;4.30;;;13.90;99.90;;;15.02;89.14;97607.66;5192307;28;20203;-66
2021/07/12 04:56:15;;;;;;;4.20;3.90;;;14.10;99.90;;;15.28;89.21;97604.31;5189862;28;20309;-65
2021/07/12 04:58:49;;;;;;;4.72;4.43;;;14.40;99.90;;;15.56;87.76;97597.50;5182589;28;20201;-66
2021/07/12 05:01:23;;;;;;;4.55;4.25;;;14.50;99.90;;;15.84;87.45;97601.00;5189426;28;20208;-66
2021/07/12 05:04:01;;;;;;;4.80;4.40;;;14.90;99.90;;;16.38;85.59;97600.97;5188277;28;20221;-66
2021/07/12 05:06:35;;;;;;;4.43;3.95;;;15.40;99.90;;;17.07;82.47;97600.41;5179924;28;20645;-66
2021/07/12 05:09:08;;;;;;;4.22;3.92;;;16.10;99.90;;;17.77;78.42;97601.38;5180521;28;20233;-66
2021/07/12 05:11:42;;;;;;;4.50;4.20;;;16.70;99.90;;;18.39;74.73;97598.50;5182260;28;20209;-66
2021/07/12 05:14:15;;;;;;;3.95;3.65;;;17.20;99.90;;;18.87;72.28;97603.88;5185541;28;20208;-67
2021/07/12 05:16:48;;;;;;;3.92;3.55;;;17.40;99.90;;;19.44;69.67;97606.69;5188346;28;20198;-65
2021/07/12 05:19:21;;;;;;;4.32;3.85;;;17.80;99.90;;;19.75;68.13;97608.13;5182004;28;20219;-65
2021/07/12 05:21:54;;;;;;;5.03;3.53;;;18.00;99.90;;;20.10;66.28;97608.69;5188857;28;20201;-66
2021/07/12 05:24:27;;;;;;;4.15;3.20;;;18.30;99.90;;;20.38;65.05;97604.78;5184929;28;20677;-65
2021/07/12 05:27:02;;;;;;;3.67;3.35;;;18.50;99.90;;;20.70;64.60;97599.19;5185851;28;20202;-68
2021/07/12 05:29:35;;;;;;;3.58;3.28;;;18.80;99.90;;;20.90;63.21;97602.91;5187970;28;20250;-66
2021/07/12 05:32:08;;;;;;;3.90;3.30;;;19.10;99.90;;;21.26;62.18;97598.09;5188218;28;20229;-66
2021/07/12 05:34:41;;;;;;;4.05;3.22;;;19.20;99.90;;;21.45;61.80;97594.84;5192982;28;20202;-67
2021/07/12 05:37:14;;;;;;;4.63;3.58;;;19.30;99.90;;;21.65;60.85;97600.25;5183383;28;20206;-65
2021/07/12 05:39:47;;;;;;;3.28;3.00;;;19.50;99.90;;;21.94;59.23;97592.69;5182190;28;20230;-66
2021/07/12 05:42:23;;;;;;;3.83;2.60;;;19.70;99.90;;;21.93;61.17;97595.28;5188626;28;20670;-66
2021/07/12 05:44:56;;;;;;;3.75;3.08;;;19.80;99.90;;;22.39;59.93;97595.66;5184774;28;20729;-66
2021/07/12 05:47:29;;;;;;;3.40;3.10;;;20.20;99.90;;;22.73;59.27;97599.31;5179545;28;20295;-67
2021/07/12 05:50:02;;;;;;;3.25;2.95;;;20.50;99.90;;;23.01;57.92;97597.72;5180434;28;20702;-67
2021/07/12 05:52:36;;;;;;;2.72;2.53;;;20.60;99.90;;;23.13;57.69;97589.06;5182119;28;20634;-66
2021/07/12 05:55:11;;;;;;;3.15;2.85;;;20.60;99.90;;;23.31;56.79;97589.09;5184069;28;20222;-67
2021/07/12 05:57:46;;;;;;;3.60;3.03;;;20.40;99.90;;;23.45;56.42;97583.03;5176350;28;20213;-67
2021/07/12 06:00:19;;;;;;;3.53;3.00;;;20.70;99.90;;;23.39;56.63;97578.69;5186395;28;20220;-66
2021/07/12 06:02:53;;;;;;;3.50;2.90;;;20.80;99.90;;;23.48;57.15;97577.81;5188956;28;20289;-66
2021/07/12 06:05:26;;;;;;;3.30;2.97;;;20.90;99.90;;;23.68;55.93;97583.94;5185551;28;20658;-66
2021/07/12 06:08:00;;;;;;;4.03;2.92;;;21.10;99.90;;;24.09;56.31;97567.41;5188431;28;20301;-66
2021/07/12 06:10:33;;;;;;;4.40;2.80;;;21.30;99.90;;;24.61;55.11;97571.66;5187847;28;20790;-66
2021/07/12 06:13:07;;;;;;;2.92;2.63;;;21.60;99.90;;;24.83;53.87;97570.72;5184596;28;20573;-68
2021/07/12 06:15:41;;;;;;;2.67;2.47;;;22.00;99.90;;;25.22;52.57;97568.81;5179778;28;20221;-67
2021/07/12 06:18:15;;;;;;;3.00;2.63;;;22.20;99.90;;;25.43;52.08;97559.09;5184307;28;20587;-67
2021/07/12 06:20:48;;;;;;;3.22;2.97;;;22.40;99.90;;;25.48;51.98;97558.19;5188112;28;20332;-67
2021/07/12 06:23:21;;;;;;;2.90;2.58;;;22.60;99.90;;;25.68;51.51;97559.78;5176115;28;20691;-68
2021/07/12 06:25:54;;;;;;;3.55;2.40;;;22.70;99.90;;;26.10;50.36;97568.19;5182746;28;20194;-66
2021/07/12 06:28:28;;;;;;;2.85;2.65;;;22.80;99.90;;;26.52;48.35;97574.78;5188637;28;20204;-66
2021/07/12 06:31:01;;;;;;;2.50;2.30;;;23.10;99.90;;;26.86;47.93;97566.50;5190799;28;20217;-68
2021/07/12 06:33:35;;;;;;;3.33;2.38;;;23.10;99.90;;;27.22;47.32;97567.81;5186849;28;20206;-66
2021/07/12 06:36:08;;;;;;;2.65;2.45;;;23.50;99.90;;;27.25;47.22;97565.16;5186716;28;20220;-68
2021/07/12 06:38:42;;;;;;;3.35;2.30;;;23.80;99.90;;;27.77;47.17;97576.63;5183352;28;20229;-67
2021/07/12 06:41:15;;;;;;;2.20;2.00;;;24.20;99.90;;;27.83;46.14;97574.78;5184076;28;20205;-67
2021/07/12 06:43:51;;;;;;;2.95;2.33;;;24.40;99.90;;;28.15;45.60;97567.25;5178868;28;20564;-67
2021/07/12 06:46:24;;;;;;;2.35;2.25;;;24.70;99.90;;;28.26;46.38;97562.66;5181014;28;20204;-68
2021/07/12 06:48:57;;;;;;;2.33;2.00;;;24.90;99.90;;;28.50;44.66;97557.00;5182526;28;20560;-67
2021/07/12 06:51:31;;;;;;;2.58;1.90;;;25.10;99.90;;;28.64;45.47;97554.06;5182911;28;20198;-67
2021/07/12 06:54:04;;;;;;;2.33;2.00;;;25.40;99.90;;;29.03;44.26;97554.19;5188284;28;20202;-68
2021/07/12 06:56:37;;;;;;;1.80;1.70;;;25.90;99.90;;;29.43;44.83;97548.03;5181744;28;20245;-69
2021/07/12 06:59:11;;;;;;;2.65;1.88;;;26.60;99.90;;;29.77;42.77;97528.81;5180549;28;20229;-68
2021/07/12 07:01:45;;;;;;;2.10;1.73;;;26.70;99.70;;;29.58;42.61;97516.03;5187393;28;20205;-67
2021/07/12 07:04:18;;;;;;;2.28;2.08;;;27.10;98.40;;;29.33;42.02;97520.16;5180796;28;20230;-67
2021/07/12 07:06:51;;;;;;;2.20;2.00;;;26.80;97.30;;;29.64;42.68;97523.81;5180154;28;20194;-67
2021/07/12 07:09:25;;;;;;;2.53;2.13;;;26.80;98.50;;;29.55;42.83;97526.66;5179046;28;20223;-68
2021/07/12 07:11:58;;;;;;;1.85;1.75;;;27.00;98.00;;;28.95;43.43;97521.84;5173771;28;20202;-67
2021/07/12 07:14:32;;;;;;;2.22;2.00;;;26.60;98.00;;;29.21;44.07;97513.41;5180750;28;20848;-67
2021/07/12 07:17:06;;;;;;;2.47;1.92;;;26.70;98.70;;;28.87;43.51;97514.16;5181857;28;20221;-67
2021/07/12 07:19:39;;;;;;;2.28;2.08;;;26.70;98.00;;;29.16;43.57;97523.19;5187726;28;20308;-68
2021/07/12 07:22:12;;;;;;;2.00;1.90;;;26.60;98.60;;;29.20;43.77;97519.59;5187139;28;20206;-67
2021/07/12 07:24:45;;;;;;;1.83;1.70;;;26.70;98.50;;;29.03;43.80;97514.69;5179798;28;20202;-68
2021/07/12 07:27:38;;;;;;;2.95;1.88;;;26.80;97.80;;;28.67;42.56;97506.69;5182214;28;20225;-67
2021/07/12 07:30:15;;;;;;;1.83;1.73;;;26.50;96.90;;;28.53;44.51;97503.47;5193090;28;20329;-67
2021/07/12 07:32:48;;;;;;;2.10;2.00;;;26.30;98.30;;;28.24;44.70;97502.25;5175746;28;20578;-67
2021/07/12 07:35:22;;;;;;;1.95;1.85;;;26.10;98.30;;;28.12;45.47;97499.84;5186301;28;20201;-68
2021/07/12 07:37:55;;;;;;;2.20;2.00;;;26.00;98.90;;;28.11;45.05;97499.88;5198149;28;20727;-67
2021/07/12 07:40:28;;;;;;;2.35;1.80;;;26.10;97.60;;;28.17;45.48;97490.09;5181589;28;20228;-68
2021/07/12 07:43:01;;;;;;;2.70;2.03;;;26.20;98.60;;;28.44;44.61;97483.44;5186561;28;20205;-67
2021/07/12 07:45:36;;;;;;;2.58;2.10;;;26.40;97.70;;;28.65;44.06;97471.63;5185680;28;20201;-68
2021/07/12 07:48:09;;;;;;;1.95;1.85;;;26.40;97.30;;;28.90;42.64;97473.72;5182320;28;20206;-68
2021/07/12 07:50:43;;;;;;;2.17;1.67;;;26.60;97.00;;;28.95;43.44;97467.44;5176540;28;20231;-69
2021/07/12 07:53:17;;;;;;;1.83;1.73;;;26.90;96.80;;;28.95;42.34;97461.31;5185676;28;20206;-67
2021/07/12 07:55:50;;;;;;;1.83;1.73;;;26.80;95.60;;;28.81;42.52;97460.78;5180506;28;20203;-68
2021/07/12 07:58:23;;;;;;;1.80;1.70;;;26.60;96.40;;;29.14;40.29;97460.03;5190220;28;20287;-67
2021/07/12 08:00:57;;;;;;;1.70;1.60;;;27.10;94.60;;;28.27;41.97;97453.97;5170517;28;20240;-68
2021/07/12 08:03:30;;;;;;;1.90;1.70;;;26.20;95.00;;;28.48;40.89;97448.31;5179092;28;20216;-67
2021/07/12 08:06:03;;;;;;;1.80;1.70;;;26.40;94.60;;;28.39;41.38;97447.63;5186022;28;20202;-66
2021/07/12 08:08:36;;;;;;;1.60;1.50;;;26.50;94.60;;;28.42;41.88;97453.72;5185250;28;20202;-67
2021/07/12 08:11:09;;;;;;;1.90;1.30;;;26.50;94.80;;;28.11;41.16;97445.53;5177669;28;20708;-67
2021/07/12 08:13:42;;;;;;;1.80;1.70;;;26.20;94.10;;;28.14;40.58;97431.47;5179690;28;20213;-67
2021/07/12 08:16:19;;;;;;;1.58;1.48;;;26.10;93.70;;;28.72;39.76;97419.75;5186436;28;20304;-67
2021/07/12 08:18:52;;;;;;;1.60;1.50;;;26.40;93.60;;;28.89;40.08;97416.72;5187095;28;20197;-66
2021/07/12 08:21:25;;;;;;;1.65;1.55;;;27.00;93.30;;;29.73;39.08;97422.63;5199421;28;20198;-67
2021/07/12 08:23:59;;;;;;;1.50;1.40;;;27.50;93.20;;;29.63;39.41;97411.44;5186510;28;20194;-67
2021/07/12 08:26:32;;;;;;;1.80;1.70;;;27.80;93.10;;;29.61;39.85;97412.34;5186363;28;20205;-67
2021/07/12 08:29:06;;;;;;;1.92;1.70;;;28.00;92.90;;;29.38;39.08;97420.84;5186133;28;20589;-66
2021/07/12 08:31:40;;;;;;;1.70;1.60;;;27.80;92.20;;;29.35;40.17;97420.91;5188261;28;20376;-66
2021/07/12 08:34:14;;;;;;;1.50;1.40;;;27.80;92.60;;;29.43;38.42;97413.69;5186159;28;20227;-66
2021/07/12 08:36:47;;;;;;;1.60;1.50;;;27.80;91.60;;;29.18;40.10;97408.16;5191867;28;20236;-67
2021/07/12 08:39:21;;;;;;;2.10;1.50;;;27.60;92.30;;;28.92;39.86;97406.13;5189851;28;20737;-68
2021/07/12 08:41:54;;;;;;;1.60;1.50;;;27.70;92.50;;;28.96;39.56;97406.03;5191719;28;20295;-67
2021/07/12 08:44:32;;;;;;;2.00;1.90;;;27.80;91.80;;;28.76;39.52;97395.13;5198671;28;20201;-66
2021/07/12 08:47:08;;;;;;;1.80;1.70;;;27.70;91.50;;;27.99;41.65;97395.88;5190156;28;20676;-67
2021/07/12 08:49:41;;;;;;;1.60;1.50;;;27.10;92.30;;;28.16;41.80;97396.38;5185427;28;20224;-67
2021/07/12 08:52:14;;;;;;;1.83;1.73;;;27.40;92.60;;;27.95;40.98;97384.53;5185927;28;20239;-67
2021/07/12 08:54:47;;;;;;;1.98;1.80;;;27.20;91.80;;;28.34;41.83;97391.63;5186101;28;20643;-67
2021/07/12 08:57:20;;;;;;;2.00;1.90;;;27.50;92.70;;;28.04;41.82;97384.38;5197276;28;20221;-66
2021/07/12 08:59:56;;;;;;;1.77;1.67;;;27.30;92.10;;;27.91;41.68;97387.25;5193654;28;20789;-67
2021/07/12 09:02:32;;;;;;;1.75;1.65;;;27.00;92.70;;;27.93;43.14;97380.19;5187163;28;20205;-67
2021/07/12 09:05:09;;;;;;;1.90;1.80;;;27.20;93.20;;;28.01;42.24;97378.28;5182129;28;20202;-66
2021/07/12 09:07:42;;;;;;;1.80;1.67;;;27.30;92.10;;;27.30;43.04;97373.44;5195193;28;20649;-67
2021/07/12 09:10:21;;;;;;;2.10;1.85;;;26.70;92.60;;;27.48;43.83;97369.66;5185633;28;20304;-66
2021/07/12 09:12:55;;;;;;;2.08;1.88;;;26.80;93.40;;;27.11;43.90;97365.88;5188691;28;20202;-66
2021/07/12 09:15:28;;;;;;;2.17;1.90;;;26.50;93.10;;;26.96;44.41;97364.38;5178107;28;20243;-66
2021/07/12 09:18:16;;;;;;;1.90;1.80;;;26.50;93.30;;;27.42;44.36;97362.75;5176093;28;20213;-66
2021/07/12 09:20:50;;;;;;;2.13;2.03;;;26.90;93.30;;;27.75;43.94;97376.13;5187149;28;20702;-67
2021/07/12 09:23:23;;;;;;;1.98;1.88;;;27.30;93.30;;;27.97;44.02;97371.38;5195033;28;20193;-65
2021/07/12 09:26:00;;;;;;;1.90;1.80;;;27.50;93.10;;;28.29;43.54;97373.31;5203726;28;20202;-66
2021/07/12 09:28:41;;;;;;;1.77;1.67;;;27.80;92.80;;;28.51;42.30;97365.88;5205998;28;20220;-66
2021/07/12 09:31:26;;;;;;;1.98;1.88;;;28.00;91.90;;;28.47;41.32;97361.56;5189609;28;20226;-66
2021/07/12 09:34:02;;;;;;;1.90;1.80;;;27.80;91.30;;;28.30;41.54;97368.03;5185999;28;20197;-67
2021/07/12 09:36:39;;;;;;;1.98;1.88;;;27.60;91.80;;;28.38;42.17;97367.00;5192289;28;20627;-66
2021/07/12 09:39:28;;;;;;;2.15;2.05;;;27.90;92.30;;;28.33;41.58;97371.47;5205754;28;20592;-65
2021/07/12 09:42:06;;;;;;;2.15;2.05;;;27.80;92.30;;;27.92;42.64;97362.72;5185401;28;20209;-67
2021/07/12 09:44:43;;;;;;;1.83;1.73;;;27.40;92.00;;;27.65;42.77;97357.06;5183359;28;20212;-66
2021/07/12 09:47:19;;;;;;;1.92;1.83;;;27.20;91.60;;;27.91;42.64;97366.25;5189696;28;20203;-66
2021/07/12 09:50:02;;;;;;;1.63;1.52;;;27.30;92.30;;;28.17;41.96;97369.19;5194160;28;20218;-66
2021/07/12 09:52:41;;;;;;;1.67;1.58;;;27.60;91.30;;;28.09;41.73;97376.38;5185047;28;20217;-67
2021/07/12 09:55:16;;;;;;;2.30;2.10;;;27.50;91.50;;;28.17;41.68;97363.94;5200509;28;20201;-66
2021/07/12 09:58:06;;;;;;;1.80;1.70;;;27.60;91.30;;;28.36;42.14;97363.53;5200649;28;20688;-65
2021/07/12 10:00:41;;;;;;;2.22;1.95;;;27.80;91.40;;;28.54;42.12;97371.06;5204073;28;20229;-66
2021/07/12 10:03:16;;;;;;;2.13;1.98;;;28.10;91.90;;;28.74;41.38;97360.94;5201575;28;20581;-66
2021/07/12 10:05:52;;;;;;;2.00;1.90;;;28.20;91.00;;;28.87;41.10;97369.41;5202602;28;20280;-66
2021/07/12 10:08:25;;;;;;;2.10;2.00;;;28.20;91.20;;;28.92;40.44;97359.63;5193439;28;20198;-66
2021/07/12 10:10:59;;;;;;;2.13;1.75;;;28.10;91.00;;;28.90;40.78;97366.72;5184947;28;20252;-66
2021/07/12 10:13:33;;;;;;;2.78;1.60;;;28.30;90.70;;;29.00;40.43;97367.34;5176197;28;20253;-66
2021/07/12 10:16:06;;;;;;;1.92;1.83;;;28.40;90.40;;;29.07;40.81;97353.16;5182903;28;20221;-66
2021/07/12 10:18:41;;;;;;;2.30;1.80;;;28.40;90.60;;;29.12;40.27;97346.00;5176360;28;20268;-67
2021/07/12 10:21:16;;;;;;;2.20;2.08;;;28.60;90.40;;;29.12;40.84;97340.75;5186270;28;20194;-67
2021/07/12 10:23:56;;;;;;;2.13;1.92;;;28.50;90.60;;;28.76;40.28;97342.50;5173972;28;20293;-66
2021/07/12 10:26:53;;;;;;;4.03;2.17;;;28.20;90.60;;;28.70;39.67;97343.50;5189207;28;20205;-65
2021/07/12 10:29:30;;;;;;;1.95;1.85;;;28.20;89.90;;;28.49;40.30;97326.44;5182986;28;20230;-66
2021/07/12 10:32:14;;;;;;;2.00;1.90;;;27.90;90.00;;;28.39;39.99;97330.16;5189800;28;20392;-66
2021/07/12 10:34:49;;;;;;;2.45;2.00;;;27.80;90.00;;;27.92;39.75;97329.41;5203488;28;20205;-66
2021/07/12 10:37:29;;;;;;;2.35;2.15;;;27.50;89.10;;;28.00;41.79;97329.25;5188927;28;20201;-67
2021/07/12 10:40:18;;;;;;;2.03;1.92;;;27.30;91.10;;;27.93;39.23;97332.91;5180379;28;20226;-65
2021/07/12 10:42:57;;;;;;;2.38;1.92;;;27.40;88.30;;;27.91;40.16;97324.19;5197430;28;20193;-68
2021/07/12 10:45:51;;;;;;;2.00;1.90;;;27.40;88.80;;;27.97;40.06;97327.56;5187840;28;20212;-66
2021/07/12 10:48:34;;;;;;;2.10;2.00;;;27.40;89.30;;;27.66;41.23;97316.78;5193651;28;20206;-66
2021/07/12 10:51:20;;;;;;;2.08;1.98;;;27.20;90.50;;;27.60;40.76;97324.78;5166836;28;20230;-67
2021/07/12 10:54:02;;;;;;;2.00;1.90;;;27.10;89.20;;;27.40;41.38;97327.78;5165001;28;20293;-67
2021/07/12 10:56:50;;;;;;;2.10;1.83;;;26.80;90.40;;;27.53;41.57;97320.56;5169360;28;20198;-66